Time;durP1;ratioP1;P1;durP2;ratioP2;P2;SDS_P1;SDS_P2;PMS_P1;PMS_P2;Temp;Humidity;BMP_temperature;BMP_pressure;BME280_temperature;BME280_humidity;BME280_pressure;Samples;Min_cycle;Max_cycle;Signal;HPM_P1;HPM_P2
2022/06/10 00:00:31;;;;;;;;;5.00;4.67;;;;;23.07;52.63;98289.31;4978301;28;102397;-61
2022/06/10 00:02:58;;;;;;;;;4.67;3.33;;;;;23.08;52.78;98295.66;4951333;28;104001;-60
2022/06/10 00:05:26;;;;;;;;;4.00;4.00;;;;;23.07;52.70;98305.88;4948299;28;102424;-61
2022/06/10 00:07:54;;;;;;;;;6.00;3.33;;;;;23.08;52.81;98309.47;4970504;28;104504;-61
2022/06/10 00:10:23;;;;;;;;;4.00;4.00;;;;;23.06;52.58;98306.97;4966207;28;102642;-60
2022/06/10 00:12:50;;;;;;;;;3.67;3.67;;;;;23.05;52.70;98307.28;4968546;28;104236;-62
2022/06/10 00:15:18;;;;;;;;;4.00;4.00;;;;;23.04;52.65;98309.22;4969270;28;102669;-60
2022/06/10 00:17:45;;;;;;;;;4.00;4.00;;;;;23.03;52.84;98313.09;4942954;28;102623;-61
2022/06/10 00:20:14;;;;;;;;;4.33;4.33;;;;;23.04;52.74;98311.16;4971983;28;102594;-61
2022/06/10 00:22:41;;;;;;;;;5.00;4.67;;;;;23.00;52.84;98313.66;4967125;28;105128;-61
2022/06/10 00:25:09;;;;;;;;;4.00;4.00;;;;;23.01;53.00;98314.50;4965232;28;109945;-61
2022/06/10 00:27:36;;;;;;;;;4.00;4.00;;;;;22.99;52.90;98298.22;4943852;28;103981;-60
2022/06/10 00:30:05;;;;;;;;;5.00;4.00;;;;;23.00;52.97;98302.63;4969428;28;102902;-59
2022/06/10 00:32:33;;;;;;;;;4.00;3.67;;;;;23.01;52.75;98306.22;4955391;28;104183;-60
2022/06/10 00:35:00;;;;;;;;;3.67;3.67;;;;;23.01;53.01;98300.72;4958851;28;102246;-60
2022/06/10 00:37:27;;;;;;;;;3.67;3.67;;;;;23.00;52.79;98291.59;4955648;28;102142;-60
2022/06/10 00:39:54;;;;;;;;;3.33;3.33;;;;;23.00;52.80;98296.28;4960731;28;102361;-61
2022/06/10 00:42:22;;;;;;;;;5.00;4.33;;;;;23.01;52.93;98297.94;4951032;28;105413;-60
2022/06/10 00:44:54;;;;;;;;;4.00;3.00;;;;;22.99;52.86;98301.00;4970516;28;105388;-62
2022/06/10 00:47:24;;;;;;;;;4.67;4.67;;;;;23.00;52.93;98305.41;4970034;28;102482;-61
2022/06/10 00:49:58;;;;;;;;;4.67;4.67;;;;;22.99;52.77;98306.50;4963914;28;102350;-62
2022/06/10 00:52:31;;;;;;;;;3.67;3.67;;;;;22.98;52.89;98307.59;4969199;28;112544;-61
2022/06/10 00:54:58;;;;;;;;;5.33;4.67;;;;;23.00;52.86;98312.84;4940350;28;102534;-60
2022/06/10 00:57:38;;;;;;;;;3.67;2.67;;;;;22.96;52.99;98307.09;4967299;28;103670;-60
2022/06/10 01:00:18;;;;;;;;;5.00;5.00;;;;;22.97;53.00;98314.22;4960379;28;102161;-60
2022/06/10 01:02:45;;;;;;;;;4.00;4.00;;;;;22.97;52.78;98324.44;4951845;28;107372;-61
2022/06/10 01:05:15;;;;;;;;;4.00;4.00;;;;;22.98;52.78;98326.09;4945176;28;102344;-61
2022/06/10 01:07:48;;;;;;;;;4.00;3.00;;;;;22.96;52.92;98323.63;4942369;28;102114;-60
2022/06/10 01:10:16;;;;;;;;;4.00;4.00;;;;;22.96;52.85;98320.88;4934945;28;102369;-62
2022/06/10 01:13:11;;;;;;;;;4.00;4.00;;;;;22.94;52.95;98323.09;4939084;28;103453;-60
2022/06/10 01:16:07;;;;;;;;;3.67;2.67;;;;;22.93;52.67;98318.66;4950701;28;102545;-61
2022/06/10 01:19:04;;;;;;;;;3.67;3.67;;;;;22.92;53.08;98319.78;4932551;28;102374;-60
2022/06/10 01:21:59;;;;;;;;;4.00;4.00;;;;;22.91;52.86;98320.91;4948483;28;102274;-61
2022/06/10 01:25:10;;;;;;;;;4.33;3.33;;;;;22.90;53.05;98310.97;4959842;28;109776;-61
2022/06/10 01:28:03;;;;;;;;;3.67;3.67;;;;;22.89;52.77;98308.50;4915272;28;102540;-60
2022/06/10 01:30:41;;;;;;;;;4.00;4.00;;;;;22.88;52.98;98315.94;4941828;28;102716;-61
2022/06/10 01:33:20;;;;;;;;;3.33;3.33;;;;;22.89;53.22;98316.78;4939127;28;102233;-61
2022/06/10 01:36:02;;;;;;;;;5.33;5.00;;;;;22.89;52.99;98323.13;4958607;28;103659;-61
2022/06/10 01:38:42;;;;;;;;;4.33;4.00;;;;;22.88;53.18;98326.97;4943211;28;103574;-61
2022/06/10 01:41:14;;;;;;;;;4.00;4.00;;;;;22.88;53.03;98321.47;4943373;28;102348;-61
2022/06/10 01:43:48;;;;;;;;;4.00;4.00;;;;;22.86;53.05;98320.94;4966932;28;102576;-61
2022/06/10 01:46:28;;;;;;;;;4.33;4.00;;;;;22.87;53.16;98330.88;4963973;28;105701;-61
2022/06/10 01:49:24;;;;;;;;;4.33;4.00;;;;;22.85;52.96;98327.56;4964572;28;102242;-60
2022/06/10 01:51:54;;;;;;;;;5.00;5.00;;;;;22.80;53.07;98324.84;4957350;28;102437;-61
2022/06/10 01:54:45;;;;;;;;;5.00;4.33;;;;;22.84;53.18;98331.44;4970153;28;103269;-61
2022/06/10 01:57:34;;;;;;;;;5.00;5.00;;;;;22.84;53.22;98336.13;4960328;28;108731;-61
2022/06/10 02:00:06;;;;;;;;;3.67;3.67;;;;;22.82;53.16;98344.69;4949929;28;103208;-61
2022/06/10 02:02:35;;;;;;;;;4.00;3.00;;;;;22.84;53.12;98347.97;4964207;28;102096;-60
2022/06/10 02:05:07;;;;;;;;;4.00;4.00;;;;;22.84;52.94;98350.72;4964097;28;102635;-61
2022/06/10 02:07:40;;;;;;;;;4.33;4.33;;;;;22.85;53.16;98354.31;4936461;28;107712;-61
2022/06/10 02:10:15;;;;;;;;;5.00;5.00;;;;;22.83;52.96;98360.09;4949041;28;102621;-61
2022/06/10 02:12:50;;;;;;;;;3.67;3.67;;;;;22.82;53.03;98358.47;4971077;28;102178;-62
2022/06/10 02:15:23;;;;;;;;;4.00;3.67;;;;;22.82;52.91;98363.16;4965179;28;102682;-61
2022/06/10 02:17:55;;;;;;;;;4.00;3.00;;;;;22.82;53.17;98365.91;4961412;28;104019;-61
2022/06/10 02:20:25;;;;;;;;;5.00;5.00;;;;;22.80;53.12;98360.69;4975918;28;103467;-62
2022/06/10 02:22:53;;;;;;;;;5.00;5.00;;;;;22.80;53.15;98363.44;4966583;28;102884;-61
2022/06/10 02:25:24;;;;;;;;;4.33;4.33;;;;;22.81;53.07;98361.50;4958947;28;102589;-60
2022/06/10 02:27:53;;;;;;;;;4.67;3.67;;;;;22.81;53.21;98364.25;4970464;28;104218;-61
2022/06/10 02:30:25;;;;;;;;;4.33;4.33;;;;;22.80;53.22;98368.94;4946665;28;102091;-61
2022/06/10 02:32:52;;;;;;;;;6.00;5.00;;;;;22.81;53.05;98373.38;4948183;28;102279;-60
2022/06/10 02:35:19;;;;;;;;;4.33;4.33;;;;;22.82;52.96;98386.03;4948329;28;103317;-60
2022/06/10 02:37:46;;;;;;;;;5.00;5.00;;;;;22.83;53.09;98384.13;4976054;28;104189;-61
2022/06/10 02:40:33;;;;;;;;;3.00;3.00;;;;;22.82;52.97;98383.28;4957723;28;102072;-63
2022/06/10 02:43:15;;;;;;;;;3.67;3.67;;;;;22.81;53.10;98384.41;4959763;28;102170;-60
2022/06/10 02:45:46;;;;;;;;;4.00;4.00;;;;;22.80;52.96;98391.00;4973915;28;102166;-60
2022/06/10 02:48:50;;;;;;;;;3.00;3.00;;;;;22.81;53.17;98397.34;4953667;28;104411;-60
2022/06/10 02:51:19;;;;;;;;;3.67;3.67;;;;;22.79;53.05;98405.91;4962696;28;102503;-61
2022/06/10 02:53:46;;;;;;;;;3.33;3.33;;;;;22.78;52.99;98412.53;4972437;28;102111;-62
2022/06/10 02:56:15;;;;;;;;;4.33;4.33;;;;;22.79;53.26;98421.59;4951996;28;102258;-60
2022/06/10 03:01:50;;;;;;;;;3.00;3.00;;;;;22.79;53.04;98419.69;4947314;28;102677;-61
2022/06/10 03:04:22;;;;;;;;;4.00;4.00;;;;;22.79;52.94;98416.91;4969079;28;102208;-60
2022/06/10 03:07:06;;;;;;;;;3.67;3.67;;;;;22.79;52.84;98422.44;4966670;28;102275;-61
2022/06/10 03:09:56;;;;;;;;;5.67;5.33;;;;;22.79;52.82;98411.41;4950029;28;108916;-61
2022/06/10 03:12:30;;;;;;;;;3.67;3.67;;;;;22.81;52.94;98417.47;4970445;28;102051;-61
2022/06/10 03:15:01;;;;;;;;;4.00;4.00;;;;;22.79;53.03;98405.91;4948650;28;102376;-61
2022/06/10 03:17:31;;;;;;;;;4.00;4.00;;;;;22.79;53.02;98413.34;4969785;28;102946;-61
2022/06/10 03:20:28;;;;;;;;;4.00;4.00;;;;;22.79;52.95;98419.69;4977148;28;102997;-62
2022/06/10 03:23:06;;;;;;;;;3.67;3.67;;;;;22.77;52.95;98416.41;4952280;28;104213;-60
2022/06/10 03:25:38;;;;;;;;;4.33;4.33;;;;;22.76;53.10;98414.75;4959590;28;102351;-60
2022/06/10 03:28:14;;;;;;;;;3.67;3.67;;;;;22.78;53.08;98425.50;4967813;28;102614;-61
2022/06/10 03:30:57;;;;;;;;;3.67;3.00;;;;;22.79;52.87;98424.38;4954312;28;107683;-60
2022/06/10 03:33:34;;;;;;;;;4.67;4.00;;;;;22.78;52.99;98425.50;4957972;28;102263;-60
2022/06/10 03:36:10;;;;;;;;;4.33;4.00;;;;;22.79;52.95;98433.47;4963084;28;102374;-60
2022/06/10 03:38:42;;;;;;;;;3.33;3.33;;;;;22.80;53.09;98437.88;4948863;28;102247;-60
2022/06/10 03:41:21;;;;;;;;;5.00;4.00;;;;;22.81;52.93;98445.03;4968458;28;104212;-60
2022/06/10 03:43:48;;;;;;;;;4.00;4.00;;;;;22.81;52.61;98445.03;4964636;28;102244;-60
2022/06/10 03:46:16;;;;;;;;;3.33;3.33;;;;;22.80;52.80;98446.16;4967855;28;102426;-60
2022/06/10 03:48:44;;;;;;;;;4.33;4.00;;;;;22.80;52.88;98445.31;4957352;28;103666;-60
2022/06/10 03:51:11;;;;;;;;;2.67;2.67;;;;;22.79;52.78;98450.00;4974930;28;104941;-59
2022/06/10 03:53:39;;;;;;;;;3.67;3.67;;;;;22.78;53.11;98453.91;4949836;28;102583;-59
2022/06/10 03:56:08;;;;;;;;;4.67;3.00;;;;;22.79;52.72;98463.78;4966527;28;102263;-60
2022/06/10 03:58:35;;;;;;;;;5.00;4.00;;;;;22.78;52.81;98459.41;4975212;28;102467;-60
2022/06/10 04:01:03;;;;;;;;;4.00;3.67;;;;;22.81;52.88;98466.28;4978028;28;108008;-60
2022/06/10 04:03:30;;;;;;;;;2.67;2.67;;;;;22.79;53.00;98466.53;4979304;28;102273;-60
2022/06/10 04:05:57;;;;;;;;;3.67;3.67;;;;;22.80;52.85;98472.88;4978077;28;102378;-60
2022/06/10 04:08:44;;;;;;;;;2.67;2.67;;;;;22.81;52.81;98474.53;4971588;28;103454;-60
2022/06/10 04:11:13;;;;;;;;;5.00;4.00;;;;;22.82;52.61;98481.72;4959889;28;104063;-60
2022/06/10 04:13:40;;;;;;;;;4.00;4.00;;;;;22.80;52.85;98484.75;4963836;28;102513;-60
2022/06/10 04:16:07;;;;;;;;;1.33;1.33;;;;;22.80;52.73;98484.75;4967955;28;102494;-60
2022/06/10 04:18:34;;;;;;;;;4.33;4.00;;;;;22.79;52.63;98482.25;4959853;28;103622;-60
2022/06/10 04:21:01;;;;;;;;;3.00;3.00;;;;;22.78;52.78;98486.97;4974356;28;104336;-60
2022/06/10 04:23:28;;;;;;;;;5.00;4.00;;;;;22.77;52.79;98485.31;4978010;28;102454;-60
2022/06/10 04:25:55;;;;;;;;;2.67;2.67;;;;;22.76;52.75;98486.41;4968889;28;102603;-60
2022/06/10 04:28:22;;;;;;;;;3.33;3.33;;;;;22.76;52.77;98483.66;4978874;28;102731;-60
2022/06/10 04:30:50;;;;;;;;;3.00;2.67;;;;;22.76;52.92;98485.59;4972798;28;104209;-60
2022/06/10 04:33:18;;;;;;;;;5.00;3.67;;;;;22.76;52.76;98489.19;4969199;28;103867;-60
2022/06/10 04:35:46;;;;;;;;;4.00;4.00;;;;;22.76;52.98;98493.88;4951441;28;102125;-59
2022/06/10 04:38:14;;;;;;;;;4.00;3.33;;;;;22.76;52.71;98491.94;4963572;28;102086;-59
2022/06/10 04:40:41;;;;;;;;;3.00;3.00;;;;;22.77;52.77;98490.84;4963807;28;103626;-60
2022/06/10 04:43:09;;;;;;;;;4.33;4.00;;;;;22.79;52.65;98496.03;4958783;28;102124;-60
2022/06/10 04:45:39;;;;;;;;;3.33;3.33;;;;;22.78;52.75;98491.66;4970667;28;102494;-60
2022/06/10 04:48:06;;;;;;;;;3.00;3.00;;;;;22.77;52.75;98493.59;4974506;28;102209;-60
2022/06/10 04:50:34;;;;;;;;;4.00;4.00;;;;;22.77;52.85;98501.03;4971748;28;108773;-60
2022/06/10 04:53:01;;;;;;;;;4.00;4.00;;;;;22.77;52.76;98506.53;4975835;28;103868;-60
2022/06/10 04:55:28;;;;;;;;;3.00;3.00;;;;;22.77;52.67;98510.13;4966628;28;102177;-60
2022/06/10 04:57:55;;;;;;;;;2.67;2.67;;;;;22.76;52.73;98510.41;4976346;28;102580;-60
2022/06/10 05:00:28;;;;;;;;;3.33;3.33;;;;;22.76;52.62;98521.44;4974322;28;104096;-60
2022/06/10 05:02:55;;;;;;;;;2.67;2.67;;;;;22.76;52.77;98530.53;4970014;28;102005;-60
2022/06/10 05:05:23;;;;;;;;;3.67;3.67;;;;;22.76;52.67;98525.03;4956160;28;102235;-59
2022/06/10 05:07:50;;;;;;;;;2.00;2.00;;;;;22.75;52.74;98536.31;4969182;28;102527;-60
2022/06/10 05:10:17;;;;;;;;;4.67;4.00;;;;;22.75;52.69;98542.66;4965274;28;105027;-59
2022/06/10 05:12:45;;;;;;;;;3.33;3.00;;;;;22.77;52.72;98550.66;4969080;28;102174;-60
2022/06/10 05:15:13;;;;;;;;;3.00;3.00;;;;;22.78;52.58;98542.13;4974022;28;102203;-60
2022/06/10 05:17:40;;;;;;;;;3.00;3.00;;;;;22.78;52.55;98544.88;4979963;28;102446;-60
2022/06/10 05:20:08;;;;;;;;;3.00;3.00;;;;;22.78;52.48;98553.16;4972570;28;104017;-60
2022/06/10 05:22:35;;;;;;;;;2.67;2.67;;;;;22.77;52.63;98557.00;4967066;28;102822;-60
2022/06/10 05:25:03;;;;;;;;;3.00;3.00;;;;;22.76;52.37;98558.09;4970216;28;102536;-60
2022/06/10 05:27:30;;;;;;;;;4.00;4.00;;;;;22.75;52.58;98561.97;4965410;28;102391;-60
2022/06/10 05:29:57;;;;;;;;;4.00;3.67;;;;;22.75;52.56;98556.44;4967318;28;104104;-60
2022/06/10 05:32:24;;;;;;;;;3.67;3.67;;;;;22.74;52.61;98565.81;4945041;28;105168;-59
2022/06/10 05:34:51;;;;;;;;;4.00;3.33;;;;;22.75;52.56;98564.72;4982719;28;102527;-60
2022/06/10 05:37:23;;;;;;;;;2.67;2.67;;;;;22.75;52.70;98574.91;4971142;28;102498;-59
2022/06/10 05:39:52;;;;;;;;;3.00;3.00;;;;;22.74;52.48;98565.81;4981051;28;104179;-59
2022/06/10 05:42:19;;;;;;;;;3.67;3.00;;;;;22.75;52.58;98575.75;4972427;28;102450;-59
2022/06/10 05:44:48;;;;;;;;;4.00;4.00;;;;;22.76;52.65;98582.09;4967467;28;102241;-60
2022/06/10 05:47:17;;;;;;;;;4.00;4.00;;;;;22.75;52.64;98575.75;4970627;28;104411;-60
2022/06/10 05:49:47;;;;;;;;;3.00;2.00;;;;;22.75;52.58;98584.00;4964060;28;104036;-60
2022/06/10 05:52:15;;;;;;;;;4.00;4.00;;;;;22.76;52.47;98587.59;4969798;28;105078;-58
2022/06/10 05:54:44;;;;;;;;;3.00;3.00;;;;;22.75;52.34;98592.28;4982386;28;103094;-60
2022/06/10 05:57:12;;;;;;;;;4.67;3.67;;;;;22.76;52.34;98593.94;4973718;28;102374;-60
2022/06/10 05:59:39;;;;;;;;;3.33;3.33;;;;;22.77;52.34;98590.09;4984396;28;108996;-59
2022/06/10 06:02:10;;;;;;;;;3.00;3.00;;;;;22.75;52.38;98603.31;4960617;28;103306;-60
2022/06/10 06:04:38;;;;;;;;;3.00;3.00;;;;;22.73;52.49;98600.03;4976626;28;102026;-59
2022/06/10 06:07:05;;;;;;;;;2.33;2.33;;;;;22.74;52.59;98601.66;4972610;28;102427;-60
2022/06/10 06:09:32;;;;;;;;;4.00;4.00;;;;;22.61;52.43;98578.22;4980193;28;104292;-60
2022/06/10 06:11:59;;;;;;;;;2.67;2.67;;;;;22.74;52.36;98604.41;4970434;28;102599;-60
2022/06/10 06:14:27;;;;;;;;;3.00;3.00;;;;;22.72;52.63;98606.63;4971608;28;102424;-60
2022/06/10 06:16:58;;;;;;;;;3.67;3.67;;;;;22.74;52.53;98617.41;4968424;28;102698;-60
2022/06/10 06:19:26;;;;;;;;;4.00;3.00;;;;;22.75;52.39;98614.34;4975111;28;104060;-59
2022/06/10 06:21:53;;;;;;;;;3.00;2.67;;;;;22.74;52.48;98607.16;4978938;28;102322;-60
2022/06/10 06:24:21;;;;;;;;;3.00;3.00;;;;;22.73;52.60;98605.53;4973332;28;102238;-59
2022/06/10 06:26:48;;;;;;;;;3.00;3.00;;;;;22.73;52.43;98608.28;4981118;28;102288;-59
2022/06/10 06:29:15;;;;;;;;;4.00;3.00;;;;;22.73;52.46;98616.56;4983110;28;104119;-59
2022/06/10 06:31:42;;;;;;;;;5.00;4.00;;;;;22.74;52.45;98623.69;4985301;28;102030;-60
2022/06/10 06:34:09;;;;;;;;;7.00;4.67;;;;;22.73;52.50;98632.28;4971834;28;102533;-60
2022/06/10 06:36:45;;;;;;;;;4.00;4.00;;;;;22.73;52.33;98627.59;4971239;28;102401;-60
2022/06/10 06:39:12;;;;;;;;;3.33;3.33;;;;;22.70;52.11;98633.63;4965818;28;109495;-60
2022/06/10 06:41:44;;;;;;;;;2.67;2.67;;;;;22.72;52.33;98636.97;4976751;28;105661;-60
2022/06/10 06:44:12;;;;;;;;;4.33;4.33;;;;;22.74;52.41;98634.72;4976714;28;102166;-60
2022/06/10 06:46:40;;;;;;;;;4.00;3.67;;;;;22.73;52.25;98638.63;4964882;28;102313;-60
2022/06/10 06:49:18;;;;;;;;;5.00;5.00;;;;;22.73;52.50;98638.63;4972689;28;103896;-60
2022/06/10 06:51:45;;;;;;;;;3.67;3.67;;;;;22.71;52.20;98645.50;4953326;28;104721;-59
2022/06/10 06:54:12;;;;;;;;;4.67;4.67;;;;;22.60;52.42;98623.44;4958363;28;102711;-59
2022/06/10 06:56:39;;;;;;;;;4.67;4.00;;;;;22.71;52.41;98651.84;4967708;28;102483;-60
2022/06/10 06:59:06;;;;;;;;;2.67;2.67;;;;;22.73;52.50;98655.16;4969373;28;104081;-60
2022/06/10 07:01:34;;;;;;;;;3.00;3.00;;;;;22.71;52.45;98651.84;4969596;28;102499;-60
2022/06/10 07:04:04;;;;;;;;;4.33;4.33;;;;;22.70;52.42;98650.19;4974215;28;102190;-60
2022/06/10 07:06:35;;;;;;;;;4.33;4.33;;;;;22.71;52.52;98662.03;4971444;28;102193;-60
2022/06/10 07:09:03;;;;;;;;;3.67;3.67;;;;;22.72;52.41;98663.69;4971734;28;104098;-60
2022/06/10 07:11:31;;;;;;;;;6.33;5.00;;;;;22.73;52.19;98660.69;4978395;28;102547;-60
2022/06/10 07:13:58;;;;;;;;;3.00;3.00;;;;;22.73;52.44;98668.94;4960662;28;102225;-59
2022/06/10 07:16:25;;;;;;;;;4.00;3.67;;;;;22.74;52.27;98664.25;4970847;28;102403;-59
2022/06/10 07:18:52;;;;;;;;;2.67;2.67;;;;;22.74;52.26;98678.03;4970658;28;104427;-59
2022/06/10 07:21:20;;;;;;;;;3.00;3.00;;;;;22.76;52.27;98678.56;4975193;28;102692;-59
2022/06/10 07:23:47;;;;;;;;;5.00;4.00;;;;;22.74;52.32;98676.09;4976710;28;102047;-60
2022/06/10 07:26:15;;;;;;;;;4.67;4.67;;;;;22.74;52.35;98667.81;4962177;28;102038;-60
2022/06/10 07:28:42;;;;;;;;;2.00;2.00;;;;;22.74;52.27;98681.59;4979835;28;108704;-60
2022/06/10 07:31:11;;;;;;;;;3.67;3.67;;;;;22.75;52.26;98674.16;4968428;28;102505;-60
2022/06/10 07:33:39;;;;;;;;;3.67;3.67;;;;;22.74;52.28;98678.84;4968526;28;102225;-60
2022/06/10 07:36:07;;;;;;;;;3.33;3.33;;;;;22.73;52.03;98671.69;4979199;28;103865;-60
2022/06/10 07:38:34;;;;;;;;;2.67;2.67;;;;;22.74;52.24;98678.84;4978780;28;104060;-60
2022/06/10 07:43:47;;;;;;;;;4.33;4.33;;;;;22.74;52.23;98683.56;4974577;28;102488;-60
2022/06/10 07:46:16;;;;;;;;;4.67;4.67;;;;;22.74;52.37;98681.59;4971773;28;102225;-60
2022/06/10 07:48:44;;;;;;;;;4.00;4.00;;;;;22.75;52.20;98682.44;4971771;28;108676;-60
2022/06/10 07:51:11;;;;;;;;;4.67;4.67;;;;;22.76;52.16;98684.09;4974284;28;102477;-60
2022/06/10 07:53:39;;;;;;;;;5.67;4.67;;;;;22.76;52.13;98687.69;4969319;27;102105;-60
2022/06/10 07:56:06;;;;;;;;;4.00;3.00;;;;;22.75;52.05;98686.00;4976295;28;106211;-60
2022/06/10 07:58:34;;;;;;;;;4.00;4.00;;;;;22.75;52.11;98683.25;4964102;28;104195;-60
2022/06/10 08:01:01;;;;;;;;;5.00;4.33;;;;;22.75;52.03;98676.91;4976876;28;102424;-60
2022/06/10 08:03:28;;;;;;;;;5.33;3.67;;;;;22.75;52.28;98679.69;4966248;28;103127;-60
2022/06/10 08:05:56;;;;;;;;;3.00;3.00;;;;;22.75;52.14;98680.50;4953943;28;102682;-59
2022/06/10 08:08:23;;;;;;;;;4.00;4.00;;;;;22.74;51.89;98689.88;4965554;28;104149;-59
2022/06/10 08:10:50;;;;;;;;;5.00;4.00;;;;;22.75;52.16;98693.47;4935488;28;102227;-60
2022/06/10 08:13:18;;;;;;;;;5.00;4.67;;;;;22.74;52.16;98689.06;4949586;28;102646;-60
2022/06/10 08:15:45;;;;;;;;;3.00;3.00;;;;;22.73;52.09;98687.41;4953272;28;102648;-60
2022/06/10 08:18:14;;;;;;;;;4.00;4.00;;;;;22.76;52.18;98693.19;4951650;28;109384;-59
2022/06/10 08:23:28;;;;;;;;;4.67;4.67;;;;;22.76;52.12;98693.19;4980161;28;102016;-59
2022/06/10 08:25:56;;;;;;;;;4.00;3.33;;;;;22.76;51.93;98697.88;4978863;28;102348;-59
2022/06/10 08:28:23;;;;;;;;;3.67;3.67;;;;;22.76;52.20;98697.88;4967706;28;103755;-59
2022/06/10 08:30:50;;;;;;;;;4.00;4.00;;;;;22.75;52.31;98696.22;4956675;28;102183;-59
2022/06/10 08:33:17;;;;;;;;;3.67;3.67;;;;;22.77;51.93;98705.06;4974368;28;102435;-59
2022/06/10 08:35:46;;;;;;;;;4.00;4.00;;;;;22.74;52.08;98711.13;4964441;28;102594;-60
2022/06/10 08:38:14;;;;;;;;;4.00;4.00;;;;;22.75;52.07;98701.72;4976938;28;110371;-60
2022/06/10 08:41:06;;;;;;;;;4.00;3.67;;;;;22.75;52.07;98708.06;4974059;28;103202;-60
2022/06/10 08:43:46;;;;;;;;;5.00;4.67;;;;;22.75;52.25;98712.75;4970112;28;102307;-60
2022/06/10 08:46:41;;;;;;;;;3.00;2.67;;;;;22.76;52.06;98717.16;4964872;28;102723;-60
2022/06/10 08:49:30;;;;;;;;;5.00;3.33;;;;;22.76;52.00;98715.25;4968876;28;109632;-60
2022/06/10 08:52:09;;;;;;;;;4.00;3.33;;;;;22.77;52.02;98716.06;4968892;28;102318;-59
2022/06/10 08:55:06;;;;;;;;;4.00;3.67;;;;;22.77;52.08;98718.84;4969484;28;102669;-59
2022/06/10 08:57:41;;;;;;;;;3.67;3.33;;;;;22.78;52.12;98717.75;4966799;28;102187;-60
2022/06/10 09:00:19;;;;;;;;;4.00;4.00;;;;;22.77;52.20;98716.91;4970139;28;104104;-60
2022/06/10 09:02:50;;;;;;;;;2.67;2.67;;;;;22.77;52.20;98722.41;4966248;28;102508;-60
2022/06/10 09:05:24;;;;;;;;;3.00;3.00;;;;;22.77;52.00;98721.59;4971006;28;102098;-60
2022/06/10 09:08:04;;;;;;;;;5.00;5.00;;;;;22.77;52.33;98727.94;4957811;28;102542;-60
2022/06/10 09:10:54;;;;;;;;;4.67;4.67;;;;;22.78;52.25;98728.75;4949208;28;104074;-60
2022/06/10 09:13:39;;;;;;;;;4.67;4.00;;;;;22.77;52.18;98729.88;4971401;28;102911;-59
2022/06/10 09:16:47;;;;;;;;;4.33;3.67;;;;;22.77;52.06;98733.44;4963387;28;102401;-60
2022/06/10 09:19:36;;;;;;;;;4.67;4.33;;;;;22.76;52.01;98740.06;4972933;28;102653;-60
2022/06/10 09:22:30;;;;;;;;;4.33;4.00;;;;;22.78;52.00;98746.13;4957494;28;108727;-60
2022/06/10 09:25:16;;;;;;;;;3.67;3.67;;;;;22.78;52.06;98746.13;4956969;28;102519;-59
2022/06/10 09:27:50;;;;;;;;;4.00;4.00;;;;;22.78;52.05;98742.56;4954732;28;102377;-60
2022/06/10 09:30:18;;;;;;;;;3.67;3.00;;;;;22.78;52.24;98750.81;4969244;28;102517;-60
2022/06/10 09:33:09;;;;;;;;;4.00;3.00;;;;;22.78;52.07;98757.16;4980456;28;109087;-60
2022/06/10 09:35:49;;;;;;;;;4.00;4.00;;;;;22.78;52.23;98757.16;4964379;28;101991;-60
2022/06/10 09:38:33;;;;;;;;;5.00;5.00;;;;;22.78;52.03;98757.16;4961353;28;102503;-60
2022/06/10 09:41:22;;;;;;;;;4.67;4.67;;;;;22.77;52.21;98755.50;4959221;28;102561;-59
2022/06/10 09:44:02;;;;;;;;;4.67;4.33;;;;;22.77;52.35;98761.03;4970523;28;108873;-57
2022/06/10 09:46:44;;;;;;;;;4.00;4.00;;;;;22.76;52.38;98753.84;4960559;28;102418;-60
2022/06/10 09:49:38;;;;;;;;;4.00;4.00;;;;;22.76;52.15;98759.34;4963870;28;102039;-60
2022/06/10 09:52:25;;;;;;;;;6.00;6.00;;;;;22.77;52.06;98758.25;4931044;28;102333;-60
2022/06/10 09:55:20;;;;;;;;;3.67;3.67;;;;;22.77;52.00;98766.53;4961785;28;109085;-59
2022/06/10 09:58:03;;;;;;;;;4.67;3.67;;;;;22.78;51.93;98759.94;4977075;28;103340;-60
2022/06/10 10:00:39;;;;;;;;;4.67;4.67;;;;;22.78;51.79;98770.94;4974934;28;102069;-59
2022/06/10 10:03:32;;;;;;;;;5.67;5.33;;;;;22.78;51.94;98773.72;4971835;28;102495;-60
2022/06/10 10:06:18;;;;;;;;;5.67;5.00;;;;;22.79;51.85;98780.03;4974212;28;108977;-59
2022/06/10 10:09:02;;;;;;;;;6.00;4.67;;;;;22.79;51.95;98780.84;4972618;28;101997;-60
2022/06/10 10:11:36;;;;;;;;;5.67;5.00;;;;;22.79;51.43;98791.88;4948291;28;102079;-59
2022/06/10 10:14:18;;;;;;;;;6.33;6.00;;;;;22.78;51.85;98787.50;4983927;28;102076;-60
2022/06/10 10:17:14;;;;;;;;;4.67;4.67;;;;;22.78;51.90;98793.00;4980221;28;108943;-60
2022/06/10 10:19:52;;;;;;;;;5.00;5.00;;;;;22.78;52.13;98789.41;4953423;28;102499;-60
2022/06/10 10:22:31;;;;;;;;;5.67;5.67;;;;;22.78;51.89;98790.25;4976006;28;102199;-60
2022/06/10 10:24:58;;;;;;;;;3.00;3.00;;;;;22.78;52.16;98787.50;4978110;28;102350;-60
2022/06/10 10:27:32;;;;;;;;;6.00;6.00;;;;;22.78;52.13;98784.75;4964259;28;104318;-60
2022/06/10 10:30:16;;;;;;;;;6.33;5.33;;;;;22.79;52.03;98786.38;4975747;28;102371;-59
2022/06/10 10:32:44;;;;;;;;;6.00;6.00;;;;;22.79;51.88;98791.88;4980949;28;102076;-60
2022/06/10 10:35:29;;;;;;;;;7.33;6.67;;;;;22.80;52.07;98795.47;4976540;28;102425;-60
2022/06/10 10:38:04;;;;;;;;;7.00;6.33;;;;;22.79;51.69;98791.88;4980420;28;109232;-59
2022/06/10 10:40:43;;;;;;;;;7.00;6.00;;;;;22.81;52.14;98791.63;4963913;28;102295;-59
2022/06/10 10:43:20;;;;;;;;;7.00;6.67;;;;;22.81;51.88;98800.72;4971980;28;102096;-60
2022/06/10 10:46:07;;;;;;;;;4.67;4.67;;;;;22.83;52.02;98801.25;4983475;28;102289;-60
2022/06/10 10:48:45;;;;;;;;;6.33;6.00;;;;;22.83;51.84;98805.97;4961056;28;109057;-60
2022/06/10 10:51:13;;;;;;;;;7.33;7.00;;;;;22.84;51.82;98811.19;4968341;28;102367;-60
2022/06/10 10:54:11;;;;;;;;;6.33;5.67;;;;;22.84;51.93;98802.91;4968650;28;102429;-60
2022/06/10 10:56:38;;;;;;;;;7.00;6.00;;;;;22.85;52.05;98801.00;4984835;28;102447;-59
2022/06/10 10:59:05;;;;;;;;;6.67;5.67;;;;;22.86;51.90;98803.47;4978612;28;104083;-60
2022/06/10 11:01:47;;;;;;;;;5.00;5.00;;;;;22.87;51.81;98794.13;4972607;28;102734;-60
2022/06/10 11:04:24;;;;;;;;;9.67;8.00;;;;;22.87;51.84;98796.03;4973778;28;102888;-60
2022/06/10 11:07:02;;;;;;;;;5.00;5.00;;;;;22.88;51.79;98805.94;4974662;28;102534;-59
2022/06/10 11:09:51;;;;;;;;;6.67;6.67;;;;;22.88;51.80;98803.19;4964051;28;110383;-58
2022/06/10 11:12:25;;;;;;;;;5.33;5.00;;;;;22.89;51.57;98804.84;4975460;28;102094;-60
2022/06/10 11:15:03;;;;;;;;;7.33;6.00;;;;;22.88;51.64;98804.00;4959348;28;102147;-59
2022/06/10 11:17:30;;;;;;;;;7.33;6.00;;;;;22.88;51.81;98812.28;4964971;28;102583;-60
2022/06/10 11:19:59;;;;;;;;;6.33;5.33;;;;;22.88;51.88;98809.53;4966108;28;103901;-60
2022/06/10 11:22:35;;;;;;;;;8.00;7.00;;;;;22.87;51.84;98813.41;4979936;28;102183;-60
2022/06/10 11:25:06;;;;;;;;;10.33;7.33;;;;;22.86;51.76;98808.16;4969647;28;102265;-60
2022/06/10 11:27:35;;;;;;;;;5.67;5.67;;;;;22.87;51.82;98821.69;4980820;28;103473;-60
2022/06/10 11:30:07;;;;;;;;;7.33;7.00;;;;;22.88;51.95;98815.03;4973861;28;104036;-60
2022/06/10 11:33:04;;;;;;;;;7.00;6.00;;;;;22.88;51.60;98805.94;4966604;28;102445;-60
2022/06/10 11:35:39;;;;;;;;;6.67;6.67;;;;;22.89;51.67;98804.84;4968089;28;102910;-60
2022/06/10 11:38:08;;;;;;;;;8.67;8.00;;;;;22.89;51.72;98796.56;4980857;28;102355;-60
2022/06/10 11:40:43;;;;;;;;;5.67;5.67;;;;;22.89;51.74;98802.09;4985329;28;104075;-60
2022/06/10 11:43:19;;;;;;;;;7.00;6.33;;;;;22.89;51.86;98794.66;4967324;28;103993;-60
2022/06/10 11:45:58;;;;;;;;;6.00;5.00;;;;;22.90;51.84;98785.28;4978285;28;102166;-60
2022/06/10 11:48:37;;;;;;;;;6.33;6.00;;;;;22.91;51.67;98786.09;4956475;28;102626;-60
2022/06/10 11:51:07;;;;;;;;;6.00;6.00;;;;;22.92;51.69;98785.81;4976310;28;104964;-59
2022/06/10 11:53:37;;;;;;;;;5.33;5.00;;;;;22.92;51.63;98785.81;4970204;28;102462;-59
2022/06/10 12:01:42;;;;;;;;;6.67;6.00;;;;;22.94;51.73;98772.59;4968398;28;104206;-60
2022/06/10 12:04:22;;;;;;;;;5.00;5.00;;;;;22.95;51.71;98779.75;4967025;28;102382;-59
2022/06/10 12:07:01;;;;;;;;;6.67;5.67;;;;;22.95;51.65;98793.56;4980241;28;102329;-60